sensor_id;sensor_type;location;lat;lon;timestamp;pressure;altitude;pressure_sealevel;temperature;humidity
63097;BME280;49185;42.320;23.198;2023-06-05T00:01:26;95346.41;;;10.52;100.00
63097;BME280;49185;42.320;23.198;2023-06-05T00:03:51;95340.69;;;10.24;100.00
63097;BME280;49185;42.320;23.198;2023-06-05T00:06:17;95342.66;;;10.17;100.00
63097;BME280;49185;42.320;23.198;2023-06-05T00:08:42;95337.69;;;10.09;100.00
63097;BME280;49185;42.320;23.198;2023-06-05T00:11:08;95336.41;;;10.00;100.00
63097;BME280;49185;42.320;23.198;2023-06-05T00:13:33;95342.31;;;10.02;100.00
63097;BME280;49185;42.320;23.198;2023-06-05T00:15:59;95339.16;;;9.93;100.00
63097;BME280;49185;42.320;23.198;2023-06-05T00:18:24;95337.34;;;9.94;100.00
63097;BME280;49185;42.320;23.198;2023-06-05T00:20:49;95348.78;;;9.94;100.00
63097;BME280;49185;42.320;23.198;2023-06-05T00:23:15;95348.78;;;9.94;100.00
63097;BME280;49185;42.320;23.198;2023-06-05T00:25:40;95348.31;;;9.97;100.00
63097;BME280;49185;42.320;23.198;2023-06-05T00:28:06;95348.66;;;10.01;100.00
63097;BME280;49185;42.320;23.198;2023-06-05T00:30:31;95349.72;;;10.12;100.00
63097;BME280;49185;42.320;23.198;2023-06-05T00:32:57;95349.06;;;10.40;100.00
63097;BME280;49185;42.320;23.198;2023-06-05T00:35:22;95341.78;;;10.47;100.00
63097;BME280;49185;42.320;23.198;2023-06-05T00:37:48;95339.13;;;10.35;100.00
63097;BME280;49185;42.320;23.198;2023-06-05T00:40:13;95334.91;;;10.16;100.00
63097;BME280;49185;42.320;23.198;2023-06-05T00:42:39;95329.00;;;10.02;100.00
63097;BME280;49185;42.320;23.198;2023-06-05T00:45:05;95325.31;;;9.91;100.00
63097;BME280;49185;42.320;23.198;2023-06-05T00:47:32;95326.94;;;10.27;100.00
63097;BME280;49185;42.320;23.198;2023-06-05T00:49:57;95322.09;;;10.24;100.00
63097;BME280;49185;42.320;23.198;2023-06-05T00:52:24;95326.59;;;10.12;100.00
63097;BME280;49185;42.320;23.198;2023-06-05T00:54:50;95316.44;;;9.97;100.00
63097;BME280;49185;42.320;23.198;2023-06-05T00:57:16;95325.22;;;10.10;100.00
63097;BME280;49185;42.320;23.198;2023-06-05T00:59:42;95319.88;;;9.98;100.00
63097;BME280;49185;42.320;23.198;2023-06-05T01:02:07;95315.16;;;9.88;100.00
63097;BME280;49185;42.320;23.198;2023-06-05T01:04:33;95311.88;;;9.86;100.00
63097;BME280;49185;42.320;23.198;2023-06-05T01:06:59;95306.81;;;9.84;100.00
63097;BME280;49185;42.320;23.198;2023-06-05T01:09:25;95306.34;;;9.87;100.00
63097;BME280;49185;42.320;23.198;2023-06-05T01:11:59;95303.47;;;9.89;100.00
63097;BME280;49185;42.320;23.198;2023-06-05T01:14:30;95313.88;;;9.91;100.00
63097;BME280;49185;42.320;23.198;2023-06-05T01:16:57;95309.69;;;9.95;100.00
63097;BME280;49185;42.320;23.198;2023-06-05T01:19:24;95303.94;;;9.98;100.00
63097;BME280;49185;42.320;23.198;2023-06-05T01:21:49;95296.53;;;9.88;100.00
63097;BME280;49185;42.320;23.198;2023-06-05T01:24:15;95299.41;;;9.98;100.00
63097;BME280;49185;42.320;23.198;2023-06-05T01:29:24;95292.63;;;10.38;100.00
63097;BME280;49185;42.320;23.198;2023-06-05T01:31:55;95284.09;;;10.88;100.00
63097;BME280;49185;42.320;23.198;2023-06-05T01:34:25;95290.66;;;10.33;100.00
63097;BME280;49185;42.320;23.198;2023-06-05T01:36:52;95287.28;;;9.79;100.00
63097;BME280;49185;42.320;23.198;2023-06-05T01:39:19;95283.06;;;9.47;100.00
63097;BME280;49185;42.320;23.198;2023-06-05T01:41:45;95280.00;;;9.74;100.00
63097;BME280;49185;42.320;23.198;2023-06-05T01:44:13;95276.03;;;9.53;100.00
63097;BME280;49185;42.320;23.198;2023-06-05T01:46:39;95282.19;;;9.65;100.00
63097;BME280;49185;42.320;23.198;2023-06-05T01:49:05;95276.53;;;10.56;100.00
63097;BME280;49185;42.320;23.198;2023-06-05T01:51:30;95285.13;;;10.11;100.00
63097;BME280;49185;42.320;23.198;2023-06-05T01:53:56;95292.47;;;9.74;100.00
63097;BME280;49185;42.320;23.198;2023-06-05T01:56:21;95291.41;;;9.51;100.00
63097;BME280;49185;42.320;23.198;2023-06-05T01:58:47;95292.84;;;9.35;100.00
63097;BME280;49185;42.320;23.198;2023-06-05T02:01:12;95301.00;;;9.22;100.00
63097;BME280;49185;42.320;23.198;2023-06-05T02:03:38;95295.63;;;9.10;100.00
63097;BME280;49185;42.320;23.198;2023-06-05T02:06:03;95289.59;;;9.03;100.00
63097;BME280;49185;42.320;23.198;2023-06-05T02:08:29;95287.28;;;8.95;100.00
63097;BME280;49185;42.320;23.198;2023-06-05T02:10:54;95299.34;;;8.90;100.00
63097;BME280;49185;42.320;23.198;2023-06-05T02:13:20;95293.94;;;8.85;100.00
63097;BME280;49185;42.320;23.198;2023-06-05T02:15:46;95295.69;;;8.91;100.00
63097;BME280;49185;42.320;23.198;2023-06-05T02:18:12;95298.63;;;9.02;100.00
63097;BME280;49185;42.320;23.198;2023-06-05T02:20:37;95297.44;;;8.98;100.00
63097;BME280;49185;42.320;23.198;2023-06-05T02:23:03;95304.38;;;9.29;100.00
63097;BME280;49185;42.320;23.198;2023-06-05T02:25:28;95305.69;;;10.04;100.00
63097;BME280;49185;42.320;23.198;2023-06-05T02:27:54;95294.22;;;10.15;100.00
63097;BME280;49185;42.320;23.198;2023-06-05T02:30:20;95297.78;;;9.85;100.00
63097;BME280;49185;42.320;23.198;2023-06-05T02:32:46;95297.28;;;9.65;100.00
63097;BME280;49185;42.320;23.198;2023-06-05T02:35:12;95298.22;;;9.59;100.00
63097;BME280;49185;42.320;23.198;2023-06-05T02:37:39;95300.06;;;9.70;100.00
63097;BME280;49185;42.320;23.198;2023-06-05T02:40:05;95295.38;;;9.84;100.00
63097;BME280;49185;42.320;23.198;2023-06-05T02:42:30;95292.38;;;9.92;100.00
63097;BME280;49185;42.320;23.198;2023-06-05T02:44:56;95293.41;;;9.79;100.00
63097;BME280;49185;42.320;23.198;2023-06-05T02:47:21;95292.69;;;9.60;100.00
63097;BME280;49185;42.320;23.198;2023-06-05T02:49:47;95275.69;;;9.49;100.00
63097;BME280;49185;42.320;23.198;2023-06-05T02:52:12;95272.53;;;9.41;100.00
63097;BME280;49185;42.320;23.198;2023-06-05T02:54:38;95271.13;;;9.38;100.00
63097;BME280;49185;42.320;23.198;2023-06-05T02:57:03;95268.75;;;9.37;100.00
63097;BME280;49185;42.320;23.198;2023-06-05T02:59:29;95272.41;;;9.36;100.00
63097;BME280;49185;42.320;23.198;2023-06-05T03:01:54;95278.66;;;9.41;100.00
63097;BME280;49185;42.320;23.198;2023-06-05T03:04:20;95273.22;;;9.36;100.00
63097;BME280;49185;42.320;23.198;2023-06-05T03:06:45;95279.47;;;9.42;100.00
63097;BME280;49185;42.320;23.198;2023-06-05T03:09:11;95282.28;;;9.59;100.00
63097;BME280;49185;42.320;23.198;2023-06-05T03:11:36;95287.88;;;10.04;100.00
63097;BME280;49185;42.320;23.198;2023-06-05T03:14:01;95289.25;;;10.54;100.00
63097;BME280;49185;42.320;23.198;2023-06-05T03:16:27;95292.69;;;10.78;100.00
63097;BME280;49185;42.320;23.198;2023-06-05T03:18:52;95285.91;;;10.47;100.00
63097;BME280;49185;42.320;23.198;2023-06-05T03:21:18;95294.34;;;10.44;100.00
63097;BME280;49185;42.320;23.198;2023-06-05T03:23:43;95310.53;;;10.19;100.00
63097;BME280;49185;42.320;23.198;2023-06-05T03:26:09;95304.41;;;10.18;100.00
63097;BME280;49185;42.320;23.198;2023-06-05T03:28:34;95311.81;;;10.04;100.00
63097;BME280;49185;42.320;23.198;2023-06-05T03:31:00;95308.75;;;9.77;100.00
63097;BME280;49185;42.320;23.198;2023-06-05T03:33:25;95303.44;;;9.77;100.00
63097;BME280;49185;42.320;23.198;2023-06-05T03:35:50;95312.72;;;10.10;100.00
63097;BME280;49185;42.320;23.198;2023-06-05T03:38:16;95316.22;;;10.46;100.00
63097;BME280;49185;42.320;23.198;2023-06-05T03:40:41;95321.00;;;10.85;100.00
63097;BME280;49185;42.320;23.198;2023-06-05T03:43:07;95313.53;;;10.70;100.00
63097;BME280;49185;42.320;23.198;2023-06-05T03:45:34;95311.66;;;11.23;100.00
63097;BME280;49185;42.320;23.198;2023-06-05T03:48:00;95317.75;;;11.52;100.00
63097;BME280;49185;42.320;23.198;2023-06-05T03:50:26;95319.47;;;11.58;100.00
63097;BME280;49185;42.320;23.198;2023-06-05T03:52:52;95323.13;;;11.40;100.00
63097;BME280;49185;42.320;23.198;2023-06-05T03:55:20;95321.53;;;11.39;100.00
63097;BME280;49185;42.320;23.198;2023-06-05T03:57:47;95332.56;;;11.76;100.00
63097;BME280;49185;42.320;23.198;2023-06-05T04:00:13;95337.97;;;11.65;100.00
63097;BME280;49185;42.320;23.198;2023-06-05T04:02:38;95332.88;;;11.34;100.00
63097;BME280;49185;42.320;23.198;2023-06-05T04:05:04;95343.19;;;11.43;100.00
63097;BME280;49185;42.320;23.198;2023-06-05T04:07:30;95341.72;;;11.52;100.00
63097;BME280;49185;42.320;23.198;2023-06-05T04:09:55;95345.16;;;11.64;100.00
63097;BME280;49185;42.320;23.198;2023-06-05T04:12:21;95336.53;;;11.28;100.00
63097;BME280;49185;42.320;23.198;2023-06-05T04:14:46;95346.06;;;11.12;100.00
63097;BME280;49185;42.320;23.198;2023-06-05T04:17:12;95337.22;;;11.24;100.00
63097;BME280;49185;42.320;23.198;2023-06-05T04:19:37;95336.53;;;11.28;100.00
63097;BME280;49185;42.320;23.198;2023-06-05T04:22:03;95330.78;;;11.36;100.00
63097;BME280;49185;42.320;23.198;2023-06-05T04:24:28;95334.56;;;11.24;100.00
63097;BME280;49185;42.320;23.198;2023-06-05T04:26:53;95343.19;;;11.43;100.00
63097;BME280;49185;42.320;23.198;2023-06-05T04:29:19;95335.94;;;11.55;100.00
63097;BME280;49185;42.320;23.198;2023-06-05T04:31:46;95329.59;;;11.73;100.00
63097;BME280;49185;42.320;23.198;2023-06-05T04:34:12;95332.72;;;11.70;100.00
63097;BME280;49185;42.320;23.198;2023-06-05T04:36:38;95329.53;;;11.85;100.00
63097;BME280;49185;42.320;23.198;2023-06-05T04:39:04;95336.88;;;12.45;100.00
63097;BME280;49185;42.320;23.198;2023-06-05T04:41:32;95323.38;;;12.74;100.00
63097;BME280;49185;42.320;23.198;2023-06-05T04:43:58;95338.25;;;12.48;100.00
63097;BME280;49185;42.320;23.198;2023-06-05T04:46:24;95344.56;;;12.42;100.00
63097;BME280;49185;42.320;23.198;2023-06-05T04:48:49;95333.91;;;12.64;100.00
63097;BME280;49185;42.320;23.198;2023-06-05T04:51:14;95332.47;;;12.73;100.00
63097;BME280;49185;42.320;23.198;2023-06-05T04:53:40;95330.03;;;12.94;100.00
63097;BME280;49185;42.320;23.198;2023-06-05T04:56:05;95330.16;;;12.82;100.00
63097;BME280;49185;42.320;23.198;2023-06-05T04:58:31;95336.75;;;12.74;100.00
63097;BME280;49185;42.320;23.198;2023-06-05T05:00:56;95317.25;;;13.40;100.00
63097;BME280;49185;42.320;23.198;2023-06-05T05:03:21;95315.94;;;13.42;100.00
63097;BME280;49185;42.320;23.198;2023-06-05T05:05:47;95322.38;;;13.74;100.00
63097;BME280;49185;42.320;23.198;2023-06-05T05:08:12;95326.00;;;14.22;99.45
63097;BME280;49185;42.320;23.198;2023-06-05T05:10:38;95318.13;;;14.90;94.56
63097;BME280;49185;42.320;23.198;2023-06-05T05:13:03;95320.66;;;15.17;92.72
63097;BME280;49185;42.320;23.198;2023-06-05T05:15:29;95317.53;;;15.41;93.40
63097;BME280;49185;42.320;23.198;2023-06-05T05:17:55;95314.91;;;15.62;92.72
63097;BME280;49185;42.320;23.198;2023-06-05T05:20:20;95313.84;;;15.93;93.82
63097;BME280;49185;42.320;23.198;2023-06-05T05:22:45;95314.13;;;16.48;88.91
63097;BME280;49185;42.320;23.198;2023-06-05T05:25:11;95307.91;;;16.63;86.22
63097;BME280;49185;42.320;23.198;2023-06-05T05:27:36;95300.38;;;16.60;87.89
63097;BME280;49185;42.320;23.198;2023-06-05T05:30:02;95301.94;;;16.77;85.69
63097;BME280;49185;42.320;23.198;2023-06-05T05:32:27;95294.75;;;16.51;85.63
63097;BME280;49185;42.320;23.198;2023-06-05T05:34:52;95308.19;;;16.41;86.81
63097;BME280;49185;42.320;23.198;2023-06-05T05:37:18;95302.06;;;16.20;89.13
63097;BME280;49185;42.320;23.198;2023-06-05T05:39:43;95301.47;;;15.67;94.32
63097;BME280;49185;42.320;23.198;2023-06-05T05:42:09;95296.53;;;17.02;88.13
63097;BME280;49185;42.320;23.198;2023-06-05T05:44:34;95293.84;;;18.31;78.64
63097;BME280;49185;42.320;23.198;2023-06-05T05:47:00;95287.88;;;18.05;78.47
63097;BME280;49185;42.320;23.198;2023-06-05T05:49:26;95298.91;;;18.03;80.05
63097;BME280;49185;42.320;23.198;2023-06-05T05:51:51;95303.78;;;18.01;81.79
63097;BME280;49185;42.320;23.198;2023-06-05T05:54:17;95286.31;;;18.28;78.38
63097;BME280;49185;42.320;23.198;2023-06-05T05:56:42;95289.72;;;18.39;79.54
63097;BME280;49185;42.320;23.198;2023-06-05T05:59:07;95289.78;;;19.73;72.68
63097;BME280;49185;42.320;23.198;2023-06-05T06:01:33;95290.09;;;21.40;65.50
63097;BME280;49185;42.320;23.198;2023-06-05T06:03:58;95284.41;;;19.73;71.88
63097;BME280;49185;42.320;23.198;2023-06-05T06:06:24;95292.78;;;19.53;74.82
63097;BME280;49185;42.320;23.198;2023-06-05T06:08:49;95284.06;;;19.56;74.59
63097;BME280;49185;42.320;23.198;2023-06-05T06:11:15;95285.06;;;21.61;66.42
63097;BME280;49185;42.320;23.198;2023-06-05T06:13:40;95280.00;;;20.90;67.95
63097;BME280;49185;42.320;23.198;2023-06-05T06:16:06;95278.44;;;20.42;70.16
63097;BME280;49185;42.320;23.198;2023-06-05T06:18:31;95282.63;;;19.64;73.36
63097;BME280;49185;42.320;23.198;2023-06-05T06:20:57;95280.72;;;20.02;73.29
63097;BME280;49185;42.320;23.198;2023-06-05T06:23:22;95290.44;;;20.03;73.94
63097;BME280;49185;42.320;23.198;2023-06-05T06:25:48;95287.91;;;20.26;72.75
63097;BME280;49185;42.320;23.198;2023-06-05T06:28:14;95289.72;;;20.63;70.34
63097;BME280;49185;42.320;23.198;2023-06-05T06:30:39;95282.16;;;20.14;74.08
63097;BME280;49185;42.320;23.198;2023-06-05T06:33:05;95274.19;;;19.08;77.14
63097;BME280;49185;42.320;23.198;2023-06-05T06:35:30;95281.78;;;19.25;77.29
63097;BME280;49185;42.320;23.198;2023-06-05T06:37:56;95270.09;;;21.13;71.26
63097;BME280;49185;42.320;23.198;2023-06-05T06:40:22;95270.38;;;20.84;70.99
63097;BME280;49185;42.320;23.198;2023-06-05T06:42:48;95273.00;;;20.75;71.46
63097;BME280;49185;42.320;23.198;2023-06-05T06:45:14;95273.19;;;21.07;70.55
63097;BME280;49185;42.320;23.198;2023-06-05T06:47:39;95271.78;;;22.18;67.98
63097;BME280;49185;42.320;23.198;2023-06-05T06:50:05;95264.88;;;21.67;68.27
63097;BME280;49185;42.320;23.198;2023-06-05T06:52:30;95268.31;;;20.95;70.32
63097;BME280;49185;42.320;23.198;2023-06-05T06:54:56;95272.72;;;22.28;66.34
63097;BME280;49185;42.320;23.198;2023-06-05T06:57:21;95270.00;;;21.69;69.80
63097;BME280;49185;42.320;23.198;2023-06-05T06:59:47;95270.28;;;21.67;68.92
63097;BME280;49185;42.320;23.198;2023-06-05T07:02:13;95259.03;;;22.73;65.09
63097;BME280;49185;42.320;23.198;2023-06-05T07:04:40;95260.31;;;24.73;59.89
63097;BME280;49185;42.320;23.198;2023-06-05T07:07:07;95267.88;;;26.07;53.39
63097;BME280;49185;42.320;23.198;2023-06-05T07:09:33;95261.50;;;24.63;57.12
63097;BME280;49185;42.320;23.198;2023-06-05T07:11:58;95259.50;;;24.81;58.67
63097;BME280;49185;42.320;23.198;2023-06-05T07:14:24;95269.28;;;25.71;54.99
63097;BME280;49185;42.320;23.198;2023-06-05T07:16:49;95269.09;;;25.17;56.08
63097;BME280;49185;42.320;23.198;2023-06-05T07:19:15;95268.72;;;26.20;51.56
63097;BME280;49185;42.320;23.198;2023-06-05T07:21:40;95271.00;;;25.97;52.41
63097;BME280;49185;42.320;23.198;2023-06-05T07:24:06;95270.22;;;25.46;55.35
63097;BME280;49185;42.320;23.198;2023-06-05T07:26:31;95274.50;;;24.87;56.71
63097;BME280;49185;42.320;23.198;2023-06-05T07:28:57;95275.72;;;24.51;60.10
63097;BME280;49185;42.320;23.198;2023-06-05T07:31:22;95276.69;;;24.55;61.34
63097;BME280;49185;42.320;23.198;2023-06-05T07:33:48;95277.81;;;25.40;56.61
63097;BME280;49185;42.320;23.198;2023-06-05T07:36:13;95275.47;;;24.18;59.51
63097;BME280;49185;42.320;23.198;2023-06-05T07:38:39;95282.84;;;23.82;63.03
63097;BME280;49185;42.320;23.198;2023-06-05T07:41:05;95283.03;;;24.77;60.05
63097;BME280;49185;42.320;23.198;2023-06-05T07:43:31;95279.69;;;25.48;58.01
63097;BME280;49185;42.320;23.198;2023-06-05T07:45:56;95292.00;;;26.18;56.58
63097;BME280;49185;42.320;23.198;2023-06-05T07:48:22;95292.25;;;26.79;54.42
63097;BME280;49185;42.320;23.198;2023-06-05T07:50:47;95289.66;;;24.58;58.30
63097;BME280;49185;42.320;23.198;2023-06-05T07:53:13;95289.84;;;22.68;64.99
63097;BME280;49185;42.320;23.198;2023-06-05T07:55:38;95293.03;;;22.70;67.02
63097;BME280;49185;42.320;23.198;2023-06-05T07:58:03;95287.69;;;23.28;66.27
63097;BME280;49185;42.320;23.198;2023-06-05T08:00:29;95295.16;;;23.22;64.34
63097;BME280;49185;42.320;23.198;2023-06-05T08:02:54;95295.63;;;23.82;64.17
63097;BME280;49185;42.320;23.198;2023-06-05T08:05:20;95296.41;;;24.35;62.13
63097;BME280;49185;42.320;23.198;2023-06-05T08:07:45;95289.75;;;25.48;55.95
63097;BME280;49185;42.320;23.198;2023-06-05T08:10:11;95296.28;;;25.34;56.24
63097;BME280;49185;42.320;23.198;2023-06-05T08:12:37;95294.97;;;25.02;58.65
63097;BME280;49185;42.320;23.198;2023-06-05T08:15:03;95300.56;;;25.35;59.86
63097;BME280;49185;42.320;23.198;2023-06-05T08:17:28;95301.06;;;23.91;61.96
63097;BME280;49185;42.320;23.198;2023-06-05T08:19:54;95297.69;;;24.02;63.23
63097;BME280;49185;42.320;23.198;2023-06-05T08:22:19;95309.69;;;23.18;63.43
63097;BME280;49185;42.320;23.198;2023-06-05T08:24:44;95316.06;;;22.82;65.18
63097;BME280;49185;42.320;23.198;2023-06-05T08:27:10;95302.75;;;22.40;65.44
63097;BME280;49185;42.320;23.198;2023-06-05T08:29:35;95303.66;;;23.29;63.37
63097;BME280;49185;42.320;23.198;2023-06-05T08:32:00;95305.00;;;22.47;66.27
63097;BME280;49185;42.320;23.198;2023-06-05T08:34:26;95311.31;;;22.33;66.70
63097;BME280;49185;42.320;23.198;2023-06-05T08:36:51;95306.81;;;22.29;68.05
63097;BME280;49185;42.320;23.198;2023-06-05T08:39:17;95307.78;;;22.10;66.23
63097;BME280;49185;42.320;23.198;2023-06-05T08:41:43;95299.72;;;23.04;64.58
63097;BME280;49185;42.320;23.198;2023-06-05T08:44:11;95299.09;;;23.65;62.14
63097;BME280;49185;42.320;23.198;2023-06-05T08:46:39;95299.13;;;24.43;58.36
63097;BME280;49185;42.320;23.198;2023-06-05T08:49:08;95305.97;;;24.50;59.23
63097;BME280;49185;42.320;23.198;2023-06-05T08:51:37;95310.94;;;23.11;61.89
63097;BME280;49185;42.320;23.198;2023-06-05T08:54:04;95304.84;;;22.74;64.36
63097;BME280;49185;42.320;23.198;2023-06-05T08:56:30;95307.13;;;23.21;63.51
63097;BME280;49185;42.320;23.198;2023-06-05T08:58:56;95303.56;;;23.52;62.92
63097;BME280;49185;42.320;23.198;2023-06-05T09:01:22;95305.44;;;23.34;64.67
63097;BME280;49185;42.320;23.198;2023-06-05T09:03:47;95303.19;;;22.56;63.95
63097;BME280;49185;42.320;23.198;2023-06-05T09:06:13;95308.06;;;22.77;66.34
63097;BME280;49185;42.320;23.198;2023-06-05T09:08:38;95305.72;;;22.92;63.67
63097;BME280;49185;42.320;23.198;2023-06-05T09:11:27;95307.06;;;22.41;63.96
63097;BME280;49185;42.320;23.198;2023-06-05T09:13:55;95306.13;;;22.46;64.63
63097;BME280;49185;42.320;23.198;2023-06-05T09:16:22;95303.19;;;22.33;62.08
63097;BME280;49185;42.320;23.198;2023-06-05T09:18:55;95297.19;;;22.77;60.37
63097;BME280;49185;42.320;23.198;2023-06-05T09:21:22;95299.44;;;22.74;62.65
63097;BME280;49185;42.320;23.198;2023-06-05T09:23:47;95301.38;;;23.14;61.42
63097;BME280;49185;42.320;23.198;2023-06-05T09:26:13;95300.03;;;23.43;58.30
63097;BME280;49185;42.320;23.198;2023-06-05T09:28:54;95297.50;;;23.64;58.92
63097;BME280;49185;42.320;23.198;2023-06-05T09:31:20;95293.03;;;23.68;57.92
63097;BME280;49185;42.320;23.198;2023-06-05T09:33:54;95293.81;;;24.47;57.28
63097;BME280;49185;42.320;23.198;2023-06-05T09:36:20;95291.22;;;24.68;55.38
63097;BME280;49185;42.320;23.198;2023-06-05T09:38:45;95292.84;;;24.43;58.01
63097;BME280;49185;42.320;23.198;2023-06-05T09:41:13;95292.00;;;25.16;54.09
63097;BME280;49185;42.320;23.198;2023-06-05T09:43:39;95288.59;;;25.57;53.30
63097;BME280;49185;42.320;23.198;2023-06-05T09:46:12;95275.56;;;25.04;54.14
63097;BME280;49185;42.320;23.198;2023-06-05T09:48:42;95276.50;;;25.46;51.56
63097;BME280;49185;42.320;23.198;2023-06-05T09:53:44;95281.84;;;24.95;55.16
63097;BME280;49185;42.320;23.198;2023-06-05T09:56:13;95271.84;;;25.47;53.40
63097;BME280;49185;42.320;23.198;2023-06-05T09:58:44;95274.38;;;25.73;52.38
63097;BME280;49185;42.320;23.198;2023-06-05T10:01:10;95279.28;;;26.22;53.64
63097;BME280;49185;42.320;23.198;2023-06-05T10:03:40;95279.19;;;27.09;50.21
63097;BME280;49185;42.320;23.198;2023-06-05T10:06:07;95281.25;;;26.00;51.38
63097;BME280;49185;42.320;23.198;2023-06-05T10:08:33;95280.25;;;25.33;54.56
63097;BME280;49185;42.320;23.198;2023-06-05T10:11:01;95276.16;;;25.18;53.07
63097;BME280;49185;42.320;23.198;2023-06-05T10:13:28;95266.75;;;24.59;53.91
63097;BME280;49185;42.320;23.198;2023-06-05T10:15:54;95264.09;;;25.19;56.23
63097;BME280;49185;42.320;23.198;2023-06-05T10:18:22;95255.91;;;26.21;53.79
63097;BME280;49185;42.320;23.198;2023-06-05T10:20:47;95264.13;;;26.91;48.22
63097;BME280;49185;42.320;23.198;2023-06-05T10:23:17;95259.78;;;25.99;52.08
63097;BME280;49185;42.320;23.198;2023-06-05T10:25:45;95254.13;;;25.02;53.45
63097;BME280;49185;42.320;23.198;2023-06-05T10:31:10;95252.50;;;26.03;50.60
63097;BME280;49185;42.320;23.198;2023-06-05T10:38:43;95240.03;;;25.30;50.34
63097;BME280;49185;42.320;23.198;2023-06-05T10:41:09;95243.75;;;24.31;53.32
63097;BME280;49185;42.320;23.198;2023-06-05T10:43:45;95236.56;;;25.71;49.89
63097;BME280;49185;42.320;23.198;2023-06-05T10:53:58;95227.50;;;26.80;44.62
63097;BME280;49185;42.320;23.198;2023-06-05T10:59:18;95227.59;;;26.25;42.34
63097;BME280;49185;42.320;23.198;2023-06-05T11:01:43;95221.91;;;26.64;40.12
63097;BME280;49185;42.320;23.198;2023-06-05T11:04:09;95211.25;;;26.96;40.01
63097;BME280;49185;42.320;23.198;2023-06-05T11:06:34;95212.34;;;26.70;40.37
63097;BME280;49185;42.320;23.198;2023-06-05T11:09:11;95208.28;;;27.13;41.92
63097;BME280;49185;42.320;23.198;2023-06-05T11:11:59;95202.81;;;27.38;41.46
63097;BME280;49185;42.320;23.198;2023-06-05T11:14:45;95197.03;;;28.24;40.45
63097;BME280;49185;42.320;23.198;2023-06-05T11:17:28;95200.78;;;28.32;38.21
63097;BME280;49185;42.320;23.198;2023-06-05T11:19:54;95193.81;;;28.06;37.65
63097;BME280;49185;42.320;23.198;2023-06-05T11:22:19;95188.06;;;27.83;39.12
63097;BME280;49185;42.320;23.198;2023-06-05T11:24:45;95184.38;;;28.03;39.71
63097;BME280;49185;42.320;23.198;2023-06-05T11:28:04;95189.84;;;28.03;39.20
63097;BME280;49185;42.320;23.198;2023-06-05T11:30:23;95186.03;;;27.80;38.92
63097;BME280;49185;42.320;23.198;2023-06-05T11:32:49;95194.38;;;27.83;38.23
63097;BME280;49185;42.320;23.198;2023-06-05T11:35:15;95187.75;;;28.13;37.42
63097;BME280;49185;42.320;23.198;2023-06-05T11:37:41;95188.88;;;28.12;37.47
63097;BME280;49185;42.320;23.198;2023-06-05T11:40:08;95189.16;;;29.34;34.40
63097;BME280;49185;42.320;23.198;2023-06-05T11:42:33;95185.34;;;27.83;38.76
63097;BME280;49185;42.320;23.198;2023-06-05T11:44:59;95186.59;;;27.86;40.53
63097;BME280;49185;42.320;23.198;2023-06-05T11:47:26;95187.53;;;29.13;36.04
63097;BME280;49185;42.320;23.198;2023-06-05T11:49:52;95177.19;;;29.97;33.74
63097;BME280;49185;42.320;23.198;2023-06-05T11:52:18;95176.06;;;28.92;40.09
63097;BME280;49185;42.320;23.198;2023-06-05T11:54:44;95174.53;;;28.31;39.04
63097;BME280;49185;42.320;23.198;2023-06-05T11:57:09;95176.06;;;28.44;38.20
63097;BME280;49185;42.320;23.198;2023-06-05T11:59:36;95162.44;;;28.32;37.44
63097;BME280;49185;42.320;23.198;2023-06-05T12:02:02;95161.97;;;28.74;39.20
63097;BME280;49185;42.320;23.198;2023-06-05T12:04:28;95157.53;;;29.56;36.77
63097;BME280;49185;42.320;23.198;2023-06-05T12:06:53;95159.81;;;29.89;34.69
63097;BME280;49185;42.320;23.198;2023-06-05T12:09:19;95162.06;;;30.26;33.50
63097;BME280;49185;42.320;23.198;2023-06-05T12:11:45;95162.53;;;29.89;34.07
63097;BME280;49185;42.320;23.198;2023-06-05T12:14:29;95161.50;;;29.59;33.69
63097;BME280;49185;42.320;23.198;2023-06-05T12:16:54;95152.31;;;28.80;36.22
63097;BME280;49185;42.320;23.198;2023-06-05T12:19:20;95142.91;;;27.73;40.08
63097;BME280;49185;42.320;23.198;2023-06-05T12:21:47;95153.84;;;27.20;44.50
63097;BME280;49185;42.320;23.198;2023-06-05T12:24:13;95147.69;;;29.35;36.23
63097;BME280;49185;42.320;23.198;2023-06-05T12:29:17;95137.31;;;28.74;36.71
63097;BME280;49185;42.320;23.198;2023-06-05T12:31:42;95137.53;;;27.49;39.48
63097;BME280;49185;42.320;23.198;2023-06-05T12:34:07;95130.09;;;26.96;40.83
63097;BME280;49185;42.320;23.198;2023-06-05T12:36:40;95121.81;;;26.68;40.86
63097;BME280;49185;42.320;23.198;2023-06-05T12:39:05;95122.47;;;26.89;40.53
63097;BME280;49185;42.320;23.198;2023-06-05T12:41:31;95115.91;;;26.78;42.25
63097;BME280;49185;42.320;23.198;2023-06-05T12:44:01;95119.97;;;26.97;42.49
63097;BME280;49185;42.320;23.198;2023-06-05T12:46:27;95117.25;;;26.47;43.84
63097;BME280;49185;42.320;23.198;2023-06-05T12:48:55;95114.19;;;26.49;43.99
63097;BME280;49185;42.320;23.198;2023-06-05T12:51:20;95112.44;;;26.07;44.07
63097;BME280;49185;42.320;23.198;2023-06-05T12:53:46;95101.81;;;26.64;43.10
63097;BME280;49185;42.320;23.198;2023-06-05T12:56:11;95098.88;;;27.34;40.23
63097;BME280;49185;42.320;23.198;2023-06-05T12:58:36;95100.78;;;27.34;40.92
63097;BME280;49185;42.320;23.198;2023-06-05T13:01:02;95102.59;;;26.77;40.21
63097;BME280;49185;42.320;23.198;2023-06-05T13:03:27;95100.53;;;26.37;42.49
63097;BME280;49185;42.320;23.198;2023-06-05T13:05:53;95103.22;;;26.00;44.99
63097;BME280;49185;42.320;23.198;2023-06-05T13:08:18;95099.22;;;25.64;46.54
63097;BME280;49185;42.320;23.198;2023-06-05T13:10:43;95097.06;;;25.57;45.10